sensor_id;sensor_type;location;lat;lon;timestamp;pressure;altitude;pressure_sealevel;temperature;humidity
70437;BME280;57877;39.750;-104.894;2022-08-21T00:01:43;84062.45;;;24.21;32.39
70437;BME280;57877;39.750;-104.894;2022-08-21T00:04:10;84063.58;;;24.35;32.32
70437;BME280;57877;39.750;-104.894;2022-08-21T00:06:36;84066.05;;;22.39;34.37
70437;BME280;57877;39.750;-104.894;2022-08-21T00:09:02;84070.35;;;23.20;33.66
70437;BME280;57877;39.750;-104.894;2022-08-21T00:11:27;84072.89;;;23.16;33.33
70437;BME280;57877;39.750;-104.894;2022-08-21T00:13:53;84075.70;;;22.35;33.54
70437;BME280;57877;39.750;-104.894;2022-08-21T00:16:19;84077.73;;;22.37;33.43
70437;BME280;57877;39.750;-104.894;2022-08-21T00:18:45;84080.14;;;23.53;32.13
70437;BME280;57877;39.750;-104.894;2022-08-21T00:21:11;84080.99;;;23.65;31.59
70437;BME280;57877;39.750;-104.894;2022-08-21T00:23:36;84086.61;;;23.36;31.44
70437;BME280;57877;39.750;-104.894;2022-08-21T00:26:03;84092.13;;;23.67;31.11
70437;BME280;57877;39.750;-104.894;2022-08-21T00:28:28;84095.89;;;23.53;31.15
70437;BME280;57877;39.750;-104.894;2022-08-21T00:30:54;84100.68;;;23.77;30.88
70437;BME280;57877;39.750;-104.894;2022-08-21T00:33:20;84103.26;;;23.60;30.69
70437;BME280;57877;39.750;-104.894;2022-08-21T00:35:46;84102.29;;;24.01;30.57
70437;BME280;57877;39.750;-104.894;2022-08-21T00:38:12;84104.52;;;23.98;30.55
70437;BME280;57877;39.750;-104.894;2022-08-21T00:40:42;84103.32;;;23.80;30.83
70437;BME280;57877;39.750;-104.894;2022-08-21T00:43:06;84100.36;;;24.17;30.27
70437;BME280;57877;39.750;-104.894;2022-08-21T00:45:30;84101.40;;;23.84;30.22
70437;BME280;57877;39.750;-104.894;2022-08-21T00:47:56;84098.31;;;23.66;30.88
70437;BME280;57877;39.750;-104.894;2022-08-21T00:50:24;84097.95;;;24.04;30.82
70437;BME280;57877;39.750;-104.894;2022-08-21T00:52:47;84098.12;;;23.91;29.92
70437;BME280;57877;39.750;-104.894;2022-08-21T00:55:14;84095.98;;;24.02;30.29
70437;BME280;57877;39.750;-104.894;2022-08-21T00:57:52;84098.89;;;24.11;30.19
70437;BME280;57877;39.750;-104.894;2022-08-21T01:00:10;84101.36;;;23.80;30.06
70437;BME280;57877;39.750;-104.894;2022-08-21T01:02:31;84100.09;;;23.77;30.32
70437;BME280;57877;39.750;-104.894;2022-08-21T01:04:56;84096.43;;;24.09;30.02
70437;BME280;57877;39.750;-104.894;2022-08-21T01:07:22;84095.33;;;23.96;29.85
70437;BME280;57877;39.750;-104.894;2022-08-21T01:09:48;84095.27;;;24.16;29.89
70437;BME280;57877;39.750;-104.894;2022-08-21T01:12:14;84091.24;;;23.40;30.90
70437;BME280;57877;39.750;-104.894;2022-08-21T01:14:41;84089.18;;;23.80;30.77
70437;BME280;57877;39.750;-104.894;2022-08-21T01:17:06;84089.60;;;23.14;31.34
70437;BME280;57877;39.750;-104.894;2022-08-21T01:19:32;84093.18;;;23.39;33.48
70437;BME280;57877;39.750;-104.894;2022-08-21T01:21:58;84091.22;;;23.51;33.48
70437;BME280;57877;39.750;-104.894;2022-08-21T01:24:24;84090.00;;;22.34;34.89
70437;BME280;57877;39.750;-104.894;2022-08-21T01:26:50;84093.72;;;23.49;34.53
70437;BME280;57877;39.750;-104.894;2022-08-21T01:29:23;84089.92;;;23.41;32.96
70437;BME280;57877;39.750;-104.894;2022-08-21T01:31:40;84090.35;;;23.32;32.62
70437;BME280;57877;39.750;-104.894;2022-08-21T01:34:07;84090.84;;;23.38;32.39
70437;BME280;57877;39.750;-104.894;2022-08-21T01:36:32;84091.99;;;23.38;32.94
70437;BME280;57877;39.750;-104.894;2022-08-21T01:38:57;84090.95;;;23.53;32.07
70437;BME280;57877;39.750;-104.894;2022-08-21T01:41:22;84091.37;;;23.31;31.27
70437;BME280;57877;39.750;-104.894;2022-08-21T01:43:47;84095.34;;;23.63;31.32
70437;BME280;57877;39.750;-104.894;2022-08-21T01:46:13;84097.50;;;23.75;31.25
70437;BME280;57877;39.750;-104.894;2022-08-21T01:48:39;84098.32;;;22.81;32.15
70437;BME280;57877;39.750;-104.894;2022-08-21T01:51:06;84099.51;;;23.02;32.13
70437;BME280;57877;39.750;-104.894;2022-08-21T01:53:31;84105.13;;;22.89;32.89
70437;BME280;57877;39.750;-104.894;2022-08-21T01:55:57;84106.10;;;22.66;33.62
70437;BME280;57877;39.750;-104.894;2022-08-21T01:58:23;84103.08;;;22.58;34.29
70437;BME280;57877;39.750;-104.894;2022-08-21T02:00:49;84101.87;;;22.56;35.38
70437;BME280;57877;39.750;-104.894;2022-08-21T02:03:15;84096.98;;;22.45;35.98
70437;BME280;57877;39.750;-104.894;2022-08-21T02:05:41;84094.74;;;21.75;36.67
70437;BME280;57877;39.750;-104.894;2022-08-21T02:08:07;84091.69;;;22.33;35.80
70437;BME280;57877;39.750;-104.894;2022-08-21T02:10:33;84088.76;;;22.44;36.04
70437;BME280;57877;39.750;-104.894;2022-08-21T02:13:00;84089.06;;;22.50;35.79
70437;BME280;57877;39.750;-104.894;2022-08-21T02:15:25;84090.51;;;22.42;35.56
70437;BME280;57877;39.750;-104.894;2022-08-21T02:17:53;84091.85;;;22.00;35.76
70437;BME280;57877;39.750;-104.894;2022-08-21T02:20:20;84093.25;;;22.57;35.49
70437;BME280;57877;39.750;-104.894;2022-08-21T02:22:43;84095.09;;;21.86;36.20
70437;BME280;57877;39.750;-104.894;2022-08-21T02:25:09;84096.43;;;22.19;35.96
70437;BME280;57877;39.750;-104.894;2022-08-21T02:27:39;84097.70;;;22.16;36.17
70437;BME280;57877;39.750;-104.894;2022-08-21T02:30:01;84097.52;;;21.71;36.96
70437;BME280;57877;39.750;-104.894;2022-08-21T02:32:27;84097.71;;;21.97;36.93
70437;BME280;57877;39.750;-104.894;2022-08-21T02:34:53;84093.85;;;21.86;37.05
70437;BME280;57877;39.750;-104.894;2022-08-21T02:37:19;84096.30;;;21.65;37.51
70437;BME280;57877;39.750;-104.894;2022-08-21T02:39:44;84099.13;;;21.85;37.40
70437;BME280;57877;39.750;-104.894;2022-08-21T02:42:10;84100.91;;;21.61;37.78
70437;BME280;57877;39.750;-104.894;2022-08-21T02:44:36;84101.48;;;21.54;38.01
70437;BME280;57877;39.750;-104.894;2022-08-21T02:47:02;84099.77;;;21.70;38.38
70437;BME280;57877;39.750;-104.894;2022-08-21T02:49:28;84101.74;;;21.31;38.83
70437;BME280;57877;39.750;-104.894;2022-08-21T02:51:54;84104.37;;;22.24;37.92
70437;BME280;57877;39.750;-104.894;2022-08-21T02:54:20;84113.76;;;20.70;40.19
70437;BME280;57877;39.750;-104.894;2022-08-21T02:56:46;84115.05;;;20.67;40.09
70437;BME280;57877;39.750;-104.894;2022-08-21T02:59:13;84113.79;;;20.68;40.35
70437;BME280;57877;39.750;-104.894;2022-08-21T03:01:38;84114.82;;;20.56;40.38
70437;BME280;57877;39.750;-104.894;2022-08-21T03:04:04;84114.02;;;20.26;41.29
70437;BME280;57877;39.750;-104.894;2022-08-21T03:06:30;84114.29;;;20.34;41.09
70437;BME280;57877;39.750;-104.894;2022-08-21T03:08:56;84111.36;;;20.86;40.10
70437;BME280;57877;39.750;-104.894;2022-08-21T03:11:22;84110.92;;;21.04;39.81
70437;BME280;57877;39.750;-104.894;2022-08-21T03:13:48;84111.99;;;20.30;39.53
70437;BME280;57877;39.750;-104.894;2022-08-21T03:16:14;84109.98;;;20.68;39.70
70437;BME280;57877;39.750;-104.894;2022-08-21T03:18:40;84111.93;;;20.80;38.99
70437;BME280;57877;39.750;-104.894;2022-08-21T03:21:06;84111.17;;;20.82;38.70
70437;BME280;57877;39.750;-104.894;2022-08-21T03:23:32;84111.72;;;20.70;38.89
70437;BME280;57877;39.750;-104.894;2022-08-21T03:25:58;84114.92;;;20.90;38.40
70437;BME280;57877;39.750;-104.894;2022-08-21T03:28:24;84115.31;;;20.52;38.26
70437;BME280;57877;39.750;-104.894;2022-08-21T03:30:52;84109.12;;;20.67;38.38
70437;BME280;57877;39.750;-104.894;2022-08-21T03:33:18;84112.98;;;20.35;38.33
70437;BME280;57877;39.750;-104.894;2022-08-21T03:35:43;84112.52;;;20.57;37.91
70437;BME280;57877;39.750;-104.894;2022-08-21T03:38:08;84112.39;;;20.36;37.98
70437;BME280;57877;39.750;-104.894;2022-08-21T03:40:34;84111.48;;;20.31;37.68
70437;BME280;57877;39.750;-104.894;2022-08-21T03:43:00;84107.66;;;20.86;36.62
70437;BME280;57877;39.750;-104.894;2022-08-21T03:45:26;84110.14;;;20.46;36.68
70437;BME280;57877;39.750;-104.894;2022-08-21T03:47:54;84107.93;;;20.22;36.86
70437;BME280;57877;39.750;-104.894;2022-08-21T03:50:18;84109.11;;;20.53;36.11
70437;BME280;57877;39.750;-104.894;2022-08-21T03:52:44;84106.65;;;20.52;36.04
70437;BME280;57877;39.750;-104.894;2022-08-21T03:55:10;84101.10;;;20.31;36.39
70437;BME280;57877;39.750;-104.894;2022-08-21T03:57:36;84097.92;;;20.51;35.62
70437;BME280;57877;39.750;-104.894;2022-08-21T04:00:04;84099.39;;;20.29;35.86
70437;BME280;57877;39.750;-104.894;2022-08-21T04:02:28;84098.70;;;20.61;35.25
70437;BME280;57877;39.750;-104.894;2022-08-21T04:04:53;84099.09;;;20.95;34.51
70437;BME280;57877;39.750;-104.894;2022-08-21T04:07:20;84096.94;;;20.55;34.65
70437;BME280;57877;39.750;-104.894;2022-08-21T04:09:46;84098.80;;;21.20;34.14
70437;BME280;57877;39.750;-104.894;2022-08-21T04:12:12;84097.05;;;21.46;33.61
70437;BME280;57877;39.750;-104.894;2022-08-21T04:14:37;84098.98;;;21.51;33.36
70437;BME280;57877;39.750;-104.894;2022-08-21T04:17:04;84101.16;;;21.24;33.34
70437;BME280;57877;39.750;-104.894;2022-08-21T04:19:29;84101.74;;;21.40;33.18
70437;BME280;57877;39.750;-104.894;2022-08-21T04:21:56;84093.98;;;21.40;33.16
70437;BME280;57877;39.750;-104.894;2022-08-21T04:24:22;84087.64;;;21.61;32.78
70437;BME280;57877;39.750;-104.894;2022-08-21T04:26:47;84085.64;;;21.49;32.53
70437;BME280;57877;39.750;-104.894;2022-08-21T04:29:14;84086.94;;;21.70;32.67
70437;BME280;57877;39.750;-104.894;2022-08-21T04:31:40;84087.87;;;20.90;32.94
70437;BME280;57877;39.750;-104.894;2022-08-21T04:34:05;84080.05;;;21.48;32.90
70437;BME280;57877;39.750;-104.894;2022-08-21T04:36:32;84081.57;;;21.35;32.98
70437;BME280;57877;39.750;-104.894;2022-08-21T04:38:58;84079.90;;;21.46;32.80
70437;BME280;57877;39.750;-104.894;2022-08-21T04:41:24;84085.72;;;21.22;33.11
70437;BME280;57877;39.750;-104.894;2022-08-21T04:43:49;84081.83;;;21.13;33.17
70437;BME280;57877;39.750;-104.894;2022-08-21T04:46:16;84083.53;;;20.55;33.96
70437;BME280;57877;39.750;-104.894;2022-08-21T04:48:42;84082.30;;;20.60;34.01
70437;BME280;57877;39.750;-104.894;2022-08-21T04:51:09;84081.37;;;21.17;33.95
70437;BME280;57877;39.750;-104.894;2022-08-21T04:53:37;84079.22;;;21.06;33.75
70437;BME280;57877;39.750;-104.894;2022-08-21T04:56:04;84080.09;;;20.88;33.58
70437;BME280;57877;39.750;-104.894;2022-08-21T04:58:26;84073.45;;;20.90;33.64
70437;BME280;57877;39.750;-104.894;2022-08-21T05:00:52;84074.02;;;20.66;34.09
70437;BME280;57877;39.750;-104.894;2022-08-21T05:03:17;84072.27;;;20.52;33.91
70437;BME280;57877;39.750;-104.894;2022-08-21T05:05:43;84066.97;;;20.62;34.46
70437;BME280;57877;39.750;-104.894;2022-08-21T05:08:13;84062.93;;;20.32;34.79
70437;BME280;57877;39.750;-104.894;2022-08-21T05:10:34;84062.57;;;20.30;34.36
70437;BME280;57877;39.750;-104.894;2022-08-21T05:13:01;84060.59;;;20.19;35.05
70437;BME280;57877;39.750;-104.894;2022-08-21T05:15:27;84053.08;;;19.50;35.78
70437;BME280;57877;39.750;-104.894;2022-08-21T05:17:52;84051.97;;;19.85;35.75
70437;BME280;57877;39.750;-104.894;2022-08-21T05:20:19;84050.45;;;19.72;35.95
70437;BME280;57877;39.750;-104.894;2022-08-21T05:22:44;84045.32;;;19.30;36.76
70437;BME280;57877;39.750;-104.894;2022-08-21T05:25:10;84045.86;;;18.90;37.81
70437;BME280;57877;39.750;-104.894;2022-08-21T05:27:37;84043.21;;;19.25;37.44
70437;BME280;57877;39.750;-104.894;2022-08-21T05:30:04;84044.35;;;19.65;36.89
70437;BME280;57877;39.750;-104.894;2022-08-21T05:32:28;84040.08;;;19.21;37.12
70437;BME280;57877;39.750;-104.894;2022-08-21T05:34:54;84045.01;;;19.82;36.11
70437;BME280;57877;39.750;-104.894;2022-08-21T05:37:20;84047.27;;;19.57;36.71
70437;BME280;57877;39.750;-104.894;2022-08-21T05:39:46;84045.82;;;19.52;36.81
70437;BME280;57877;39.750;-104.894;2022-08-21T05:42:12;84045.00;;;19.65;36.36
70437;BME280;57877;39.750;-104.894;2022-08-21T05:44:38;84044.71;;;19.93;36.25
70437;BME280;57877;39.750;-104.894;2022-08-21T05:47:05;84043.84;;;19.24;36.82
70437;BME280;57877;39.750;-104.894;2022-08-21T05:49:30;84041.34;;;19.32;37.19
70437;BME280;57877;39.750;-104.894;2022-08-21T05:51:56;84040.39;;;19.63;36.89
70437;BME280;57877;39.750;-104.894;2022-08-21T05:54:21;84040.51;;;19.55;37.13
70437;BME280;57877;39.750;-104.894;2022-08-21T05:56:47;84039.90;;;18.92;38.33
70437;BME280;57877;39.750;-104.894;2022-08-21T05:59:14;84036.96;;;18.84;38.91
70437;BME280;57877;39.750;-104.894;2022-08-21T06:01:40;84036.31;;;18.83;39.03
70437;BME280;57877;39.750;-104.894;2022-08-21T06:04:05;84032.77;;;18.83;39.65
70437;BME280;57877;39.750;-104.894;2022-08-21T06:06:31;84034.82;;;18.65;39.24
70437;BME280;57877;39.750;-104.894;2022-08-21T06:08:57;84035.18;;;19.26;38.74
70437;BME280;57877;39.750;-104.894;2022-08-21T06:11:23;84037.33;;;19.68;38.32
70437;BME280;57877;39.750;-104.894;2022-08-21T06:13:49;84036.00;;;19.32;38.81
70437;BME280;57877;39.750;-104.894;2022-08-21T06:16:17;84037.75;;;19.58;38.24
70437;BME280;57877;39.750;-104.894;2022-08-21T06:18:42;84034.49;;;19.25;38.26
70437;BME280;57877;39.750;-104.894;2022-08-21T06:21:08;84030.72;;;19.10;38.41
70437;BME280;57877;39.750;-104.894;2022-08-21T06:23:34;84032.12;;;18.44;39.36
70437;BME280;57877;39.750;-104.894;2022-08-21T06:25:59;84036.32;;;18.51;40.12
70437;BME280;57877;39.750;-104.894;2022-08-21T06:28:25;84029.59;;;18.26;40.91
70437;BME280;57877;39.750;-104.894;2022-08-21T06:30:51;84029.58;;;18.73;39.89
70437;BME280;57877;39.750;-104.894;2022-08-21T06:33:17;84033.12;;;18.51;39.97
70437;BME280;57877;39.750;-104.894;2022-08-21T06:35:43;84035.11;;;19.13;39.43
70437;BME280;57877;39.750;-104.894;2022-08-21T06:38:09;84033.96;;;18.84;39.08
70437;BME280;57877;39.750;-104.894;2022-08-21T06:40:35;84036.48;;;18.96;38.98
70437;BME280;57877;39.750;-104.894;2022-08-21T06:43:08;84038.11;;;18.89;38.99
70437;BME280;57877;39.750;-104.894;2022-08-21T06:45:26;84039.25;;;18.73;39.18
70437;BME280;57877;39.750;-104.894;2022-08-21T06:47:52;84037.87;;;19.13;38.54
70437;BME280;57877;39.750;-104.894;2022-08-21T06:50:18;84038.89;;;19.21;38.43
70437;BME280;57877;39.750;-104.894;2022-08-21T06:52:44;84040.65;;;19.06;38.66
70437;BME280;57877;39.750;-104.894;2022-08-21T06:55:10;84042.46;;;19.29;38.23
70437;BME280;57877;39.750;-104.894;2022-08-21T06:57:36;84043.06;;;19.62;37.77
70437;BME280;57877;39.750;-104.894;2022-08-21T07:00:02;84041.49;;;19.56;37.58
70437;BME280;57877;39.750;-104.894;2022-08-21T07:02:28;84042.46;;;19.09;37.56
70437;BME280;57877;39.750;-104.894;2022-08-21T07:04:54;84042.87;;;19.52;37.68
70437;BME280;57877;39.750;-104.894;2022-08-21T07:07:19;84043.29;;;19.35;37.49
70437;BME280;57877;39.750;-104.894;2022-08-21T07:09:45;84043.51;;;19.27;37.25
70437;BME280;57877;39.750;-104.894;2022-08-21T07:12:11;84039.80;;;19.93;37.05
70437;BME280;57877;39.750;-104.894;2022-08-21T07:14:37;84035.33;;;19.50;36.94
70437;BME280;57877;39.750;-104.894;2022-08-21T07:17:04;84036.50;;;18.93;38.14
70437;BME280;57877;39.750;-104.894;2022-08-21T07:19:30;84033.97;;;19.15;37.63
70437;BME280;57877;39.750;-104.894;2022-08-21T07:22:00;84036.70;;;19.28;36.91
70437;BME280;57877;39.750;-104.894;2022-08-21T07:24:21;84034.90;;;19.98;36.40
70437;BME280;57877;39.750;-104.894;2022-08-21T07:26:47;84038.49;;;20.01;36.23
70437;BME280;57877;39.750;-104.894;2022-08-21T07:29:13;84035.92;;;19.96;35.81
70437;BME280;57877;39.750;-104.894;2022-08-21T07:31:39;84036.72;;;19.87;35.89
70437;BME280;57877;39.750;-104.894;2022-08-21T07:34:05;84032.46;;;19.87;35.71
70437;BME280;57877;39.750;-104.894;2022-08-21T07:36:31;84033.97;;;19.56;35.58
70437;BME280;57877;39.750;-104.894;2022-08-21T07:38:57;84035.85;;;19.77;35.52
70437;BME280;57877;39.750;-104.894;2022-08-21T07:41:25;84033.45;;;19.96;35.54
70437;BME280;57877;39.750;-104.894;2022-08-21T07:43:49;84030.11;;;19.93;35.52
70437;BME280;57877;39.750;-104.894;2022-08-21T07:46:15;84028.95;;;19.84;35.68
70437;BME280;57877;39.750;-104.894;2022-08-21T07:48:41;84029.26;;;19.63;35.75
70437;BME280;57877;39.750;-104.894;2022-08-21T07:51:13;84029.13;;;19.51;35.87
70437;BME280;57877;39.750;-104.894;2022-08-21T07:53:33;84031.75;;;19.40;36.21
70437;BME280;57877;39.750;-104.894;2022-08-21T07:55:59;84032.01;;;19.22;36.48
70437;BME280;57877;39.750;-104.894;2022-08-21T07:58:25;84034.44;;;19.13;36.24
70437;BME280;57877;39.750;-104.894;2022-08-21T08:00:51;84040.94;;;19.45;36.23
70437;BME280;57877;39.750;-104.894;2022-08-21T08:03:17;84043.95;;;19.12;36.48
70437;BME280;57877;39.750;-104.894;2022-08-21T08:05:43;84046.13;;;19.17;36.56
70437;BME280;57877;39.750;-104.894;2022-08-21T08:08:09;84053.17;;;18.92;36.87
70437;BME280;57877;39.750;-104.894;2022-08-21T08:10:35;84055.00;;;19.06;37.33
70437;BME280;57877;39.750;-104.894;2022-08-21T08:13:01;84056.79;;;19.83;36.42
70437;BME280;57877;39.750;-104.894;2022-08-21T08:15:28;84055.90;;;19.45;36.27
70437;BME280;57877;39.750;-104.894;2022-08-21T08:17:53;84054.28;;;19.62;35.89
70437;BME280;57877;39.750;-104.894;2022-08-21T08:20:19;84057.66;;;19.85;36.06
70437;BME280;57877;39.750;-104.894;2022-08-21T08:22:45;84063.35;;;19.47;36.37
70437;BME280;57877;39.750;-104.894;2022-08-21T08:25:12;84064.13;;;19.67;36.15
70437;BME280;57877;39.750;-104.894;2022-08-21T08:27:37;84062.83;;;19.71;36.24
70437;BME280;57877;39.750;-104.894;2022-08-21T08:30:02;84065.75;;;19.62;36.29
70437;BME280;57877;39.750;-104.894;2022-08-21T08:32:27;84066.81;;;19.69;36.15
70437;BME280;57877;39.750;-104.894;2022-08-21T08:34:53;84071.61;;;19.76;36.11
70437;BME280;57877;39.750;-104.894;2022-08-21T08:37:20;84071.68;;;19.71;36.47
70437;BME280;57877;39.750;-104.894;2022-08-21T08:39:46;84073.61;;;19.51;36.26
70437;BME280;57877;39.750;-104.894;2022-08-21T08:42:14;84075.84;;;19.55;36.18
70437;BME280;57877;39.750;-104.894;2022-08-21T08:44:37;84076.20;;;19.50;36.32
70437;BME280;57877;39.750;-104.894;2022-08-21T08:47:04;84077.93;;;19.49;36.38
70437;BME280;57877;39.750;-104.894;2022-08-21T08:49:34;84078.41;;;19.44;36.43
70437;BME280;57877;39.750;-104.894;2022-08-21T08:52:00;84078.42;;;19.28;36.72
70437;BME280;57877;39.750;-104.894;2022-08-21T08:54:25;84076.81;;;19.72;36.81
70437;BME280;57877;39.750;-104.894;2022-08-21T08:56:48;84075.28;;;19.18;36.85
70437;BME280;57877;39.750;-104.894;2022-08-21T08:59:17;84078.81;;;19.08;37.08
70437;BME280;57877;39.750;-104.894;2022-08-21T09:01:44;84081.18;;;18.94;37.49
70437;BME280;57877;39.750;-104.894;2022-08-21T09:04:05;84086.34;;;19.04;37.70
70437;BME280;57877;39.750;-104.894;2022-08-21T09:06:42;84087.01;;;19.08;37.26
70437;BME280;57877;39.750;-104.894;2022-08-21T09:09:04;84088.15;;;19.12;37.46
70437;BME280;57877;39.750;-104.894;2022-08-21T09:11:28;84088.28;;;19.18;37.39
70437;BME280;57877;39.750;-104.894;2022-08-21T09:13:55;84089.74;;;19.35;37.42
70437;BME280;57877;39.750;-104.894;2022-08-21T09:16:22;84091.73;;;19.16;37.44
70437;BME280;57877;39.750;-104.894;2022-08-21T09:18:48;84093.21;;;18.82;37.59
70437;BME280;57877;39.750;-104.894;2022-08-21T09:21:14;84094.97;;;18.98;37.60
70437;BME280;57877;39.750;-104.894;2022-08-21T09:23:40;84099.37;;;19.18;37.54
70437;BME280;57877;39.750;-104.894;2022-08-21T09:26:04;84098.45;;;18.71;37.90
70437;BME280;57877;39.750;-104.894;2022-08-21T09:28:24;84099.16;;;19.00;37.77
70437;BME280;57877;39.750;-104.894;2022-08-21T09:30:51;84099.81;;;19.01;37.71
70437;BME280;57877;39.750;-104.894;2022-08-21T09:33:16;84098.48;;;18.76;37.42
70437;BME280;57877;39.750;-104.894;2022-08-21T09:35:48;84101.13;;;18.58;37.66
70437;BME280;57877;39.750;-104.894;2022-08-21T09:38:22;84103.89;;;19.00;37.30
70437;BME280;57877;39.750;-104.894;2022-08-21T09:40:39;84103.80;;;19.05;37.33
70437;BME280;57877;39.750;-104.894;2022-08-21T09:43:02;84107.34;;;19.07;36.98
70437;BME280;57877;39.750;-104.894;2022-08-21T09:45:27;84104.23;;;19.12;37.14
70437;BME280;57877;39.750;-104.894;2022-08-21T09:47:52;84099.16;;;19.17;36.94
70437;BME280;57877;39.750;-104.894;2022-08-21T09:50:23;84097.71;;;18.72;36.81
70437;BME280;57877;39.750;-104.894;2022-08-21T09:52:47;84102.27;;;18.97;36.75
70437;BME280;57877;39.750;-104.894;2022-08-21T09:55:16;84102.29;;;18.82;36.86
70437;BME280;57877;39.750;-104.894;2022-08-21T09:57:37;84104.39;;;18.91;36.94
70437;BME280;57877;39.750;-104.894;2022-08-21T10:00:08;84103.83;;;18.95;36.68
70437;BME280;57877;39.750;-104.894;2022-08-21T10:02:31;84101.78;;;18.97;36.66
70437;BME280;57877;39.750;-104.894;2022-08-21T10:05:00;84098.06;;;18.89;36.97
70437;BME280;57877;39.750;-104.894;2022-08-21T10:07:23;84098.52;;;18.73;36.93
70437;BME280;57877;39.750;-104.894;2022-08-21T10:09:57;84096.60;;;18.72;37.01
70437;BME280;57877;39.750;-104.894;2022-08-21T10:12:18;84097.03;;;18.56;37.19
70437;BME280;57877;39.750;-104.894;2022-08-21T10:14:48;84099.06;;;18.72;37.52
70437;BME280;57877;39.750;-104.894;2022-08-21T10:17:10;84099.62;;;18.97;37.52
70437;BME280;57877;39.750;-104.894;2022-08-21T10:19:37;84101.28;;;18.91;37.48
70437;BME280;57877;39.750;-104.894;2022-08-21T10:22:05;84103.76;;;18.73;37.60
70437;BME280;57877;39.750;-104.894;2022-08-21T10:24:28;84105.51;;;18.85;37.56
70437;BME280;57877;39.750;-104.894;2022-08-21T10:26:54;84101.26;;;18.95;37.86
70437;BME280;57877;39.750;-104.894;2022-08-21T10:29:25;84102.19;;;18.77;38.03
70437;BME280;57877;39.750;-104.894;2022-08-21T10:31:50;84104.23;;;19.30;37.72
70437;BME280;57877;39.750;-104.894;2022-08-21T10:34:15;84104.26;;;18.92;37.69
70437;BME280;57877;39.750;-104.894;2022-08-21T10:36:35;84105.67;;;19.40;37.59
70437;BME280;57877;39.750;-104.894;2022-08-21T10:39:06;84105.19;;;19.21;37.98
70437;BME280;57877;39.750;-104.894;2022-08-21T10:41:35;84110.05;;;19.46;38.37
70437;BME280;57877;39.750;-104.894;2022-08-21T10:43:55;84112.82;;;19.36;38.18
70437;BME280;57877;39.750;-104.894;2022-08-21T10:46:20;84116.29;;;19.39;38.42
70437;BME280;57877;39.750;-104.894;2022-08-21T10:48:46;84119.62;;;19.36;38.61
70437;BME280;57877;39.750;-104.894;2022-08-21T10:51:12;84116.52;;;19.41;38.71
70437;BME280;57877;39.750;-104.894;2022-08-21T10:53:44;84115.79;;;19.14;38.82
70437;BME280;57877;39.750;-104.894;2022-08-21T10:56:05;84115.68;;;19.22;39.45
70437;BME280;57877;39.750;-104.894;2022-08-21T10:58:29;84116.59;;;19.67;39.28
70437;BME280;57877;39.750;-104.894;2022-08-21T11:00:55;84117.55;;;19.54;39.83
70437;BME280;57877;39.750;-104.894;2022-08-21T11:03:19;84121.33;;;19.12;39.95
70437;BME280;57877;39.750;-104.894;2022-08-21T11:05:46;84125.44;;;19.52;39.92
70437;BME280;57877;39.750;-104.894;2022-08-21T11:08:12;84126.34;;;19.61;39.85
70437;BME280;57877;39.750;-104.894;2022-08-21T11:10:40;84126.77;;;19.30;39.89
70437;BME280;57877;39.750;-104.894;2022-08-21T11:13:02;84126.18;;;19.68;39.95
70437;BME280;57877;39.750;-104.894;2022-08-21T11:15:35;84123.66;;;19.45;39.99
70437;BME280;57877;39.750;-104.894;2022-08-21T11:17:57;84120.95;;;19.58;40.19
70437;BME280;57877;39.750;-104.894;2022-08-21T11:20:26;84120.79;;;19.44;40.13
70437;BME280;57877;39.750;-104.894;2022-08-21T11:22:49;84125.08;;;19.25;40.60
70437;BME280;57877;39.750;-104.894;2022-08-21T11:25:15;84128.89;;;19.33;40.35
70437;BME280;57877;39.750;-104.894;2022-08-21T11:27:40;84136.45;;;19.52;40.18
70437;BME280;57877;39.750;-104.894;2022-08-21T11:30:02;84136.78;;;19.45;40.17
70437;BME280;57877;39.750;-104.894;2022-08-21T11:32:44;84135.37;;;19.67;40.21
70437;BME280;57877;39.750;-104.894;2022-08-21T11:35:01;84132.40;;;19.59;39.85
70437;BME280;57877;39.750;-104.894;2022-08-21T11:37:25;84133.87;;;19.66;39.82
70437;BME280;57877;39.750;-104.894;2022-08-21T11:39:52;84136.86;;;19.75;39.69
70437;BME280;57877;39.750;-104.894;2022-08-21T11:42:19;84139.31;;;19.84;39.60
70437;BME280;57877;39.750;-104.894;2022-08-21T11:44:47;84138.49;;;19.69;39.80
70437;BME280;57877;39.750;-104.894;2022-08-21T11:47:09;84137.37;;;19.33;40.16
70437;BME280;57877;39.750;-104.894;2022-08-21T11:49:44;84135.79;;;19.21;40.14
70437;BME280;57877;39.750;-104.894;2022-08-21T11:52:02;84134.02;;;19.15;40.28
70437;BME280;57877;39.750;-104.894;2022-08-21T11:54:27;84134.04;;;18.92;40.24
70437;BME280;57877;39.750;-104.894;2022-08-21T11:56:53;84131.49;;;19.04;40.38
70437;BME280;57877;39.750;-104.894;2022-08-21T11:59:17;84131.18;;;18.81;40.13
70437;BME280;57877;39.750;-104.894;2022-08-21T12:01:42;84132.00;;;19.30;40.04
70437;BME280;57877;39.750;-104.894;2022-08-21T12:04:10;84135.76;;;19.20;39.79
70437;BME280;57877;39.750;-104.894;2022-08-21T12:06:33;84136.47;;;18.90;40.00
70437;BME280;57877;39.750;-104.894;2022-08-21T12:09:01;84137.91;;;19.31;39.54
70437;BME280;57877;39.750;-104.894;2022-08-21T12:11:26;84140.52;;;19.34;39.57
70437;BME280;57877;39.750;-104.894;2022-08-21T12:13:56;84144.22;;;19.41;39.45
70437;BME280;57877;39.750;-104.894;2022-08-21T12:16:28;84145.66;;;19.48;39.49
70437;BME280;57877;39.750;-104.894;2022-08-21T12:18:42;84151.60;;;19.23;39.76
70437;BME280;57877;39.750;-104.894;2022-08-21T12:28:26;84156.31;;;19.56;39.19
70437;BME280;57877;39.750;-104.894;2022-08-21T12:30:51;84162.24;;;19.52;39.20